Impacts METAR Board
IDs:

KDEN - Denver Intl, CO, US

Updated at: 0000 UTC 27 Apr 2018
Potential Impact None Slight Moderate High
Time 26/12Z 26/13Z 26/14Z 26/15Z 26/16Z 26/17Z 26/18Z 26/19Z 26/20Z 26/21Z 26/22Z 26/23Z 27/00Z
Temp45 44 45 47 50 51 53 56 57 58 58 58 58
Dewpt27 29 29 30 30 29 26 26 23 24 24 24 24
Altim30.17 30.20 30.24 30.27 30.28 30.29 30.29 30.28 30.27 30.26 30.25 30.24 30.24
VIS10 10 10 10 10 10 10 10 10 10 10 10 10
CIG100 100 90 80 80 70 60 75 75 -- -- -- --
CoverBKNBKNBKNBKNBKNOVCBKNBKNBKNSCTFEWFEWFEW
FltCatVFRVFRVFRVFRVFRVFRVFRVFRVFRVFRVFRVFRVFR
WX--------------------------
WDir360360360101020201020103604010
WSpd18 18 20 21 19 16 17 16 12 10 7 10 6
WGst25 30 30 -- 25 23 25 28 26 17 -- 19 --
Raw hourly METARs
KDEN 261153Z 36018G25KT 10SM BKN100 BKN200 07/M03 A3017 RMK AO2 PK WND 34028/1121 SLP169 T00721028 10111 20072 51030
KDEN 261253Z 36018G30KT 10SM FEW085 BKN100 07/M02 A3020 RMK AO2 PK WND 36032/1235 SLP185 T00671017
KDEN 261353Z 36020G30KT 10SM SCT065 BKN090 BKN120 07/M02 A3024 RMK AO2 PK WND 36035/1330 SLP212 T00721017
KDEN 261453Z 01021KT 10SM SCT055 BKN080 08/M01 A3027 RMK AO2 PK WND 36032/1408 SLP226 VIRGA W T00831011 53029
KDEN 261553Z 01019G25KT 10SM SCT055 BKN080 BKN120 10/M01 A3028 RMK AO2 PK WND 01028/1454 SLP220 T01001011
KDEN 261653Z 02016G23KT 10SM FEW044 BKN070 OVC095 11/M02 A3029 RMK AO2 PK WND 01028/1600 SLP219 T01061017
KDEN 261753Z 02017G25KT 10SM BKN060 BKN075 12/M03 A3029 RMK AO2 PK WND 04026/1658 SLP221 T01171033 10117 20067 50005
KDEN 261853Z 01016G28KT 10SM SCT065 BKN075 13/M03 A3028 RMK AO2 PK WND 35028/1844 SLP216 T01331033
KDEN 261953Z 02012G26KT 10SM SCT065 BKN075 14/M05 A3027 RMK AO2 PK WND 01028/1902 SLP211 T01391050
KDEN 262053Z 01010G17KT 10SM FEW065 SCT075 14/M04 A3026 RMK AO2 PK WND 04026/2021 SLP210 T01441044 58009
KDEN 262153Z 36007KT 10SM FEW070 14/M04 A3025 RMK AO2 SLP205 T01441044
KDEN 262253Z 04010G19KT 10SM FEW070 14/M04 A3024 RMK AO2 SLP204 T01441044
KDEN 262353Z 01006KT 10SM FEW070 14/M04 A3024 RMK AO2 SLP204 T01441044 10150 20117 55004



Page loaded:  00:28 UTC  |   05:28 PM Pacific  |   06:28 PM Mountain  |   07:28 PM Central  |   08:28 PM Eastern

 

ADVISORIES

FORECASTS

FORECASTS

OBSERVATIONS

USER TOOLS

ABOUT US